createdAt,value
2023-04-12T00:00:27.992Z,24.55
2023-04-12T00:01:30.846Z,23.91
2023-04-12T00:02:36.280Z,26.36
2023-04-12T00:03:39.958Z,24.90
2023-04-12T00:04:43.057Z,24.50
2023-04-12T00:05:46.637Z,23.70
2023-04-12T00:06:50.542Z,25.20
2023-04-12T00:07:55.593Z,23.10
2023-04-12T00:08:59.965Z,24.40
2023-04-12T00:10:02.958Z,26.10
2023-04-12T00:11:06.156Z,22.70
2023-04-12T00:12:09.344Z,26.10
2023-04-12T00:13:11.695Z,21.10
2023-04-12T00:14:13.832Z,22.40
2023-04-12T00:15:16.181Z,28.50
2023-04-12T00:16:18.678Z,24.90
2023-04-12T00:17:21.106Z,26.60
2023-04-12T00:18:25.398Z,22.30
2023-04-12T00:19:30.040Z,19.80
2023-04-12T00:20:32.348Z,23.90
2023-04-12T00:21:34.866Z,22.80
2023-04-12T00:22:37.508Z,21.00
2023-04-12T00:23:40.164Z,24.30
2023-04-12T00:24:43.102Z,19.60
2023-04-12T00:25:45.699Z,21.70
2023-04-12T00:26:48.168Z,22.10
2023-04-12T00:27:50.810Z,24.60
2023-04-12T00:28:53.251Z,21.91
2023-04-12T00:29:55.891Z,23.70
2023-04-12T00:30:58.429Z,21.64
2023-04-12T00:32:01.172Z,21.50
2023-04-12T00:33:05.480Z,20.80
2023-04-12T00:34:07.794Z,23.00
2023-04-12T00:35:10.268Z,22.70
2023-04-12T00:36:13.133Z,20.64
2023-04-12T00:37:17.426Z,21.70
2023-04-12T00:38:19.661Z,19.80
2023-04-12T00:39:22.231Z,22.30
2023-04-12T00:40:24.987Z,22.30
2023-04-12T00:41:27.746Z,19.30
2023-04-12T00:42:30.733Z,21.90
2023-04-12T00:43:34.875Z,16.30
2023-04-12T00:44:37.759Z,19.70
2023-04-12T00:45:40.451Z,19.64
2023-04-12T00:46:43.366Z,22.73
2023-04-12T00:47:46.055Z,21.27
2023-04-12T00:48:48.714Z,19.36
2023-04-12T00:49:51.934Z,20.20
2023-04-12T00:50:55.173Z,20.90
2023-04-12T00:52:02.818Z,17.50
2023-04-12T00:53:06.227Z,21.00
2023-04-12T00:54:08.464Z,21.70
2023-04-12T00:55:11.312Z,21.10
2023-04-12T00:56:14.114Z,19.55
2023-04-12T00:57:16.470Z,20.80
2023-04-12T00:58:19.016Z,21.60
2023-04-12T00:59:21.256Z,23.40
2023-04-12T01:00:23.970Z,18.80
2023-04-12T01:01:27.613Z,21.73
2023-04-12T01:02:30.836Z,21.20
2023-04-12T01:03:34.281Z,18.80
2023-04-12T01:04:38.483Z,23.36
2023-04-12T01:07:03.226Z,19.50
2023-04-12T01:08:25.758Z,19.40
2023-04-12T01:09:50.660Z,20.50
2023-04-12T01:11:02.597Z,20.20
2023-04-12T01:12:21.859Z,18.40
2023-04-12T01:14:03.113Z,17.60
2023-04-12T01:15:12.264Z,21.00
2023-04-12T01:16:25.693Z,20.40
2023-04-12T01:17:33.875Z,21.30
2023-04-12T01:18:44.600Z,21.50
2023-04-12T01:20:13.290Z,18.00
2023-04-12T01:21:28.422Z,19.70
2023-04-12T01:22:57.712Z,19.20
2023-04-12T01:24:14.041Z,20.50
2023-04-12T01:25:23.597Z,17.20
2023-04-12T01:26:41.146Z,18.60
2023-04-12T01:27:49.853Z,21.10
2023-04-12T01:28:56.218Z,20.30
2023-04-12T01:30:01.124Z,18.60
2023-04-12T01:31:06.575Z,21.10
2023-04-12T01:32:11.770Z,21.40
2023-04-12T01:33:17.481Z,17.30
2023-04-12T01:34:22.609Z,18.50
2023-04-12T01:35:29.071Z,17.50
2023-04-12T01:36:34.583Z,20.70
2023-04-12T01:37:39.029Z,17.60
2023-04-12T01:38:42.068Z,18.60
2023-04-12T01:39:44.306Z,17.30
2023-04-12T01:40:49.156Z,18.20
2023-04-12T01:41:53.358Z,19.60
2023-04-12T01:43:05.940Z,17.10
2023-04-12T01:44:08.257Z,17.60
2023-04-12T01:45:11.650Z,20.90
2023-04-12T01:46:17.676Z,18.90
2023-04-12T01:47:20.620Z,18.50
2023-04-12T01:48:23.247Z,18.90
2023-04-12T01:49:29.129Z,14.80
2023-04-12T01:50:53.770Z,18.00
2023-04-12T01:52:15.803Z,19.10
2023-04-12T01:53:25.041Z,17.00
2023-04-12T01:54:31.904Z,15.10
2023-04-12T01:55:38.223Z,17.70
2023-04-12T01:56:44.370Z,18.80
2023-04-12T01:57:49.360Z,18.50
2023-04-12T01:58:53.375Z,19.20
2023-04-12T01:59:58.329Z,17.90
2023-04-12T02:01:03.632Z,17.20
2023-04-12T02:02:08.309Z,17.90
2023-04-12T02:03:12.431Z,19.40
2023-04-12T02:04:16.857Z,18.10
2023-04-12T02:05:20.672Z,19.50
2023-04-12T02:06:25.934Z,15.90
2023-04-12T02:07:28.764Z,17.50
2023-04-12T02:08:31.471Z,16.73
2023-04-12T02:09:38.121Z,20.20
2023-04-12T02:10:40.539Z,16.90
2023-04-12T02:11:50.741Z,18.10
2023-04-12T02:12:53.894Z,17.50
2023-04-12T02:13:56.465Z,20.40
2023-04-12T02:14:59.696Z,19.30
2023-04-12T02:16:02.144Z,19.09
2023-04-12T02:17:08.587Z,17.60
2023-04-12T02:18:13.297Z,17.90
2023-04-12T02:19:16.535Z,19.40
2023-04-12T02:20:20.918Z,16.90
2023-04-12T02:21:23.830Z,17.30
2023-04-12T02:22:26.169Z,18.00
2023-04-12T02:23:30.210Z,16.50
2023-04-12T02:24:33.120Z,18.64
2023-04-12T02:25:35.457Z,17.27
2023-04-12T02:26:39.374Z,18.64
2023-04-12T02:27:46.551Z,17.70
2023-04-12T02:28:49.371Z,15.30
2023-04-12T02:29:52.168Z,18.55
2023-04-12T02:30:56.002Z,18.50
2023-04-12T02:31:59.104Z,18.40
2023-04-12T02:33:05.374Z,19.40
2023-04-12T02:34:09.588Z,17.90
2023-04-12T02:35:17.833Z,17.10
2023-04-12T02:36:21.583Z,17.80
2023-04-12T02:37:27.511Z,17.50
2023-04-12T02:38:30.828Z,16.30
2023-04-12T02:39:36.649Z,17.20
2023-04-12T02:40:41.576Z,16.70
2023-04-12T02:41:45.673Z,17.30
2023-04-12T02:42:48.480Z,18.27
2023-04-12T02:43:50.938Z,18.40
2023-04-12T02:44:53.974Z,17.55
2023-04-12T02:45:58.690Z,17.80
2023-04-12T02:47:01.165Z,13.00
2023-04-12T02:48:05.527Z,18.50
2023-04-12T02:49:09.199Z,17.00
2023-04-12T02:50:14.321Z,20.70
2023-04-12T02:51:19.480Z,19.20
2023-04-12T02:52:24.307Z,17.60
2023-04-12T02:53:34.299Z,19.60
2023-04-12T02:54:41.021Z,18.70
2023-04-12T02:55:45.344Z,18.80
2023-04-12T02:56:48.263Z,19.27
2023-04-12T02:57:53.017Z,19.00
2023-04-12T02:58:55.789Z,22.09
2023-04-12T02:59:59.910Z,21.50
2023-04-12T03:01:14.008Z,21.30
2023-04-12T03:02:18.697Z,20.20
2023-04-12T03:03:21.728Z,20.60
2023-04-12T03:04:28.008Z,21.90
2023-04-12T03:05:31.386Z,20.50
2023-04-12T03:06:34.740Z,17.30
2023-04-12T03:07:38.454Z,20.27
2023-04-12T03:08:41.303Z,20.80
2023-04-12T03:09:44.061Z,18.90
2023-04-12T03:10:47.028Z,20.00
2023-04-12T03:11:49.540Z,17.80
2023-04-12T03:12:52.341Z,19.80
2023-04-12T03:13:56.181Z,19.10
2023-04-12T03:14:58.802Z,20.00
2023-04-12T03:16:06.040Z,18.55
2023-04-12T03:17:10.369Z,19.50
2023-04-12T03:18:12.864Z,22.50
2023-04-12T03:19:19.979Z,20.70
2023-04-12T03:20:24.661Z,22.00
2023-04-12T03:21:29.218Z,20.60
2023-04-12T03:22:32.666Z,19.40
2023-04-12T03:23:36.421Z,20.91
2023-04-12T03:24:42.610Z,17.70
2023-04-12T03:25:47.005Z,18.50
2023-04-12T03:26:57.610Z,18.80
2023-04-12T03:28:00.943Z,19.90
2023-04-12T03:29:07.751Z,22.00
2023-04-12T03:30:12.674Z,20.00
2023-04-12T03:31:17.803Z,19.00
2023-04-12T03:32:21.510Z,20.00
2023-04-12T03:33:24.028Z,18.50
2023-04-12T03:34:32.584Z,12.10
2023-04-12T03:35:37.099Z,21.10
2023-04-12T03:36:41.140Z,19.20
2023-04-12T03:37:46.165Z,20.00
2023-04-12T03:38:49.362Z,20.60
2023-04-12T03:39:51.749Z,16.80
2023-04-12T03:40:55.942Z,20.10
2023-04-12T03:41:59.914Z,19.10
2023-04-12T03:43:05.115Z,17.70
2023-04-12T03:44:07.693Z,19.80
2023-04-12T03:45:11.627Z,20.00
2023-04-12T03:46:17.774Z,18.10
2023-04-12T03:47:22.035Z,19.50
2023-04-12T03:48:25.048Z,19.82
2023-04-12T03:49:27.389Z,18.40
2023-04-12T03:50:31.238Z,16.70
2023-04-12T03:51:33.894Z,17.80
2023-04-12T03:52:40.001Z,17.10
2023-04-12T03:53:42.672Z,15.30
2023-04-12T03:54:46.965Z,17.60
2023-04-12T03:55:51.291Z,18.30
2023-04-12T03:56:54.393Z,17.64
2023-04-12T03:57:58.712Z,18.40
2023-04-12T03:59:03.049Z,15.70
2023-04-12T04:00:08.064Z,17.70
2023-04-12T04:01:13.368Z,17.70
2023-04-12T04:02:16.921Z,16.30
2023-04-12T04:03:23.437Z,16.10
2023-04-12T04:04:28.097Z,15.50
2023-04-12T04:05:34.069Z,15.90
2023-04-12T04:06:38.213Z,18.20
2023-04-12T04:07:40.760Z,13.80
2023-04-12T04:08:44.493Z,16.27
2023-04-12T04:09:47.891Z,15.40
2023-04-12T04:10:50.700Z,14.20
2023-04-12T04:11:53.708Z,14.27
2023-04-12T04:12:56.952Z,16.70
2023-04-12T04:13:59.357Z,13.30
2023-04-12T04:15:02.667Z,13.36
2023-04-12T04:16:10.402Z,14.00
2023-04-12T04:17:14.354Z,14.60
2023-04-12T04:18:17.838Z,12.82
2023-04-12T04:19:20.742Z,11.30
2023-04-12T04:20:23.401Z,14.64
2023-04-12T04:21:29.136Z,13.00
2023-04-12T04:22:34.313Z,13.50
2023-04-12T04:23:38.249Z,12.80
2023-04-12T04:24:40.741Z,13.09
2023-04-12T04:25:44.456Z,13.50
2023-04-12T04:26:49.859Z,12.90
2023-04-12T04:27:55.038Z,10.80
2023-04-12T04:29:00.189Z,10.50
2023-04-12T04:30:05.665Z,11.50
2023-04-12T04:31:10.502Z,12.20
2023-04-12T04:32:15.621Z,14.70
2023-04-12T04:33:19.346Z,11.50
2023-04-12T04:34:22.628Z,9.90
2023-04-12T04:35:26.674Z,14.20
2023-04-12T04:36:37.759Z,13.00
2023-04-12T04:37:41.497Z,11.90
2023-04-12T04:38:44.249Z,8.90
2023-04-12T04:39:48.604Z,12.00
2023-04-12T04:40:54.758Z,12.73
2023-04-12T04:41:59.058Z,12.10
2023-04-12T04:43:07.789Z,11.20
2023-04-12T04:44:12.680Z,14.70
2023-04-12T04:45:17.869Z,13.10
2023-04-12T04:46:21.516Z,11.80
2023-04-12T04:47:24.514Z,13.50
2023-04-12T04:48:26.901Z,10.45
2023-04-12T04:49:29.248Z,8.60
2023-04-12T04:50:33.644Z,11.70
2023-04-12T04:51:37.272Z,12.40
2023-04-12T04:52:40.667Z,11.10
2023-04-12T04:53:45.224Z,11.90
2023-04-12T04:54:48.400Z,11.70
2023-04-12T04:56:00.467Z,11.20
2023-04-12T04:57:06.559Z,12.00
2023-04-12T04:58:11.637Z,11.90
2023-04-12T04:59:14.296Z,9.90
2023-04-12T05:00:17.931Z,10.80
2023-04-12T05:01:24.208Z,12.50
2023-04-12T05:02:26.750Z,11.00
2023-04-12T05:03:30.957Z,10.90
2023-04-12T05:04:35.288Z,11.10
2023-04-12T05:05:37.864Z,12.60
2023-04-12T05:06:43.749Z,12.30
2023-04-12T05:07:46.841Z,12.60
2023-04-12T05:08:49.563Z,9.40
2023-04-12T05:09:53.077Z,14.30
2023-04-12T05:10:56.846Z,14.10
2023-04-12T05:12:01.170Z,12.40
2023-04-12T05:13:03.703Z,12.00
2023-04-12T05:14:10.219Z,17.40
2023-04-12T05:15:13.516Z,17.00
2023-04-12T05:16:16.731Z,16.20
2023-04-12T05:17:19.252Z,15.70
2023-04-12T05:18:22.542Z,14.90
2023-04-12T05:19:25.071Z,13.70
2023-04-12T05:20:27.252Z,14.70
2023-04-12T05:21:29.429Z,13.90
2023-04-12T05:22:31.966Z,13.30
2023-04-12T05:23:44.971Z,17.60
2023-04-12T05:24:50.077Z,14.40
2023-04-12T05:25:52.925Z,14.40
2023-04-12T05:26:56.124Z,12.00
2023-04-12T05:27:59.837Z,13.20
2023-04-12T05:29:02.604Z,11.90
2023-04-12T05:30:08.288Z,11.20
2023-04-12T05:31:11.180Z,11.50
2023-04-12T05:32:15.543Z,10.80
2023-04-12T05:33:17.901Z,13.10
2023-04-12T05:34:21.746Z,12.80
2023-04-12T05:35:28.670Z,11.00
2023-04-12T05:36:34.050Z,11.80
2023-04-12T05:37:39.101Z,11.60
2023-04-12T05:38:43.819Z,30.20
2023-04-12T05:39:48.351Z,15.50
2023-04-12T05:40:53.627Z,12.90
2023-04-12T05:41:57.927Z,12.20
2023-04-12T05:43:01.902Z,11.80
2023-04-12T05:44:06.235Z,11.50
2023-04-12T05:45:11.897Z,11.00
2023-04-12T05:46:14.810Z,10.90
2023-04-12T05:47:18.057Z,15.00
2023-04-12T05:48:22.379Z,17.50
2023-04-12T05:49:33.122Z,13.90
2023-04-12T05:50:37.519Z,11.50
2023-04-12T05:51:41.914Z,9.70
2023-04-12T05:52:48.063Z,12.50
2023-04-12T05:53:51.505Z,11.60
2023-04-12T05:54:54.059Z,11.20
2023-04-12T05:55:58.371Z,12.60
2023-04-12T05:57:01.197Z,10.50
2023-04-12T05:58:04.665Z,12.00
2023-04-12T05:59:09.010Z,11.00
2023-04-12T06:00:14.865Z,10.20
2023-04-12T06:01:19.276Z,8.50
2023-04-12T06:02:23.718Z,10.60
2023-04-12T06:03:29.542Z,11.90
2023-04-12T06:04:48.829Z,12.90
2023-04-12T06:05:38.807Z,12.00
2023-04-12T06:06:43.077Z,9.60
2023-04-12T06:07:49.457Z,9.90
2023-04-12T06:08:51.859Z,10.00
2023-04-12T06:09:54.208Z,11.50
2023-04-12T06:10:58.943Z,12.10
2023-04-12T06:12:02.704Z,10.60
2023-04-12T06:13:06.965Z,7.90
2023-04-12T06:14:11.878Z,10.36
2023-04-12T06:15:14.998Z,12.70
2023-04-12T06:16:19.100Z,10.80
2023-04-12T06:17:22.376Z,10.90
2023-04-12T06:18:25.891Z,9.90
2023-04-12T06:19:28.552Z,10.70
2023-04-12T06:20:31.014Z,13.30
2023-04-12T06:21:33.732Z,11.40
2023-04-12T06:22:37.471Z,8.60
2023-04-12T06:23:40.497Z,10.20
2023-04-12T06:24:43.919Z,10.90
2023-04-12T06:25:48.694Z,9.00
2023-04-12T06:26:51.058Z,11.80
2023-04-12T06:27:53.181Z,9.40
2023-04-12T06:28:57.947Z,9.60
2023-04-12T06:30:01.070Z,10.10
2023-04-12T06:31:05.690Z,9.70
2023-04-12T06:32:09.933Z,10.10
2023-04-12T06:33:12.957Z,9.60
2023-04-12T06:34:16.348Z,13.90
2023-04-12T06:35:20.860Z,10.80
2023-04-12T06:36:23.611Z,10.50
2023-04-12T06:37:26.789Z,9.30
2023-04-12T06:38:30.128Z,12.80
2023-04-12T06:39:32.603Z,12.00
2023-04-12T06:40:35.534Z,10.60
2023-04-12T06:41:38.700Z,10.70
2023-04-12T06:42:41.591Z,10.20
2023-04-12T06:43:45.500Z,9.30
2023-04-12T06:44:47.848Z,10.10
2023-04-12T06:45:50.435Z,10.80
2023-04-12T06:46:53.196Z,7.60
2023-04-12T06:47:57.066Z,11.20
2023-04-12T06:48:59.761Z,10.20
2023-04-12T06:50:03.214Z,10.00
2023-04-12T06:51:07.185Z,10.00
2023-04-12T06:52:10.938Z,10.40
2023-04-12T06:53:13.462Z,10.60
2023-04-12T06:54:16.204Z,10.80
2023-04-12T06:55:19.101Z,10.09
2023-04-12T06:56:21.710Z,9.30
2023-04-12T06:57:24.238Z,8.30
2023-04-12T06:58:29.440Z,10.30
2023-04-12T06:59:30.654Z,8.10
2023-04-12T07:00:34.375Z,9.30
2023-04-12T07:01:36.884Z,8.90
2023-04-12T07:02:39.989Z,5.70
2023-04-12T07:03:42.673Z,10.30
2023-04-12T07:04:46.139Z,9.90
2023-04-12T07:05:49.531Z,11.20
2023-04-12T07:06:53.231Z,10.00
2023-04-12T07:07:55.441Z,8.90
2023-04-12T07:08:58.144Z,9.30
2023-04-12T07:10:02.689Z,10.50
2023-04-12T07:11:18.101Z,8.60
2023-04-12T07:12:10.328Z,8.40
2023-04-12T07:13:12.361Z,5.60
2023-04-12T07:14:15.694Z,9.00
2023-04-12T07:15:18.312Z,8.90
2023-04-12T07:16:20.681Z,9.90
2023-04-12T07:17:25.887Z,8.80
2023-04-12T07:18:28.154Z,10.00
2023-04-12T07:19:30.713Z,9.00
2023-04-12T07:20:34.388Z,8.73
2023-04-12T07:21:36.794Z,11.60
2023-04-12T07:22:39.459Z,11.50
2023-04-12T07:23:41.774Z,4.80
2023-04-12T07:24:44.129Z,8.40
2023-04-12T07:25:46.743Z,10.70
2023-04-12T07:26:49.130Z,10.20
2023-04-12T07:27:51.915Z,9.70
2023-04-12T07:28:55.263Z,10.18
2023-04-12T07:29:58.658Z,9.30
2023-04-12T07:31:03.495Z,11.00
2023-04-12T07:32:06.619Z,6.30
2023-04-12T07:33:18.921Z,9.50
2023-04-12T07:34:14.126Z,8.00
2023-04-12T07:35:16.553Z,7.60
2023-04-12T07:36:20.669Z,9.30
2023-04-12T07:37:23.380Z,10.80
2023-04-12T07:38:25.743Z,10.00
2023-04-12T07:39:32.404Z,9.20
2023-04-12T07:40:36.281Z,8.70
2023-04-12T07:41:40.350Z,10.00
2023-04-12T07:42:43.614Z,8.90
2023-04-12T07:43:46.393Z,8.50
2023-04-12T07:44:48.930Z,10.18
2023-04-12T07:45:51.751Z,9.50
2023-04-12T07:46:54.209Z,9.36
2023-04-12T07:47:56.389Z,9.10
2023-04-12T07:48:59.019Z,8.30
2023-04-12T07:50:02.205Z,9.00
2023-04-12T07:51:05.306Z,9.70
2023-04-12T07:52:07.805Z,7.90
2023-04-12T07:53:24.712Z,10.10
2023-04-12T07:54:27.894Z,9.10
2023-04-12T07:55:30.944Z,8.70
2023-04-12T07:56:37.393Z,10.60
2023-04-12T07:57:40.250Z,10.20
2023-04-12T07:58:43.117Z,10.20
2023-04-12T07:59:49.780Z,11.18
2023-04-12T08:00:54.178Z,10.50
2023-04-12T08:01:56.885Z,10.40
2023-04-12T08:02:59.640Z,10.09
2023-04-12T08:04:05.320Z,10.00
2023-04-12T08:05:08.509Z,9.80
2023-04-12T08:06:12.156Z,10.10
2023-04-12T08:07:15.959Z,11.09
2023-04-12T08:08:22.453Z,8.90
2023-04-12T08:09:25.564Z,9.50
2023-04-12T08:12:07.354Z,9.70
2023-04-12T08:13:10.184Z,8.70
2023-04-12T08:14:12.895Z,8.09
2023-04-12T08:15:15.183Z,9.20
2023-04-12T08:16:18.478Z,8.50
2023-04-12T08:17:22.235Z,8.70
2023-04-12T08:18:26.748Z,8.90
2023-04-12T08:19:29.023Z,10.10
2023-04-12T08:20:32.301Z,9.90
2023-04-12T08:21:36.227Z,8.80
2023-04-12T08:22:39.981Z,8.70
2023-04-12T08:23:42.509Z,13.20
2023-04-12T08:24:45.358Z,10.80
2023-04-12T08:25:48.407Z,8.20
2023-04-12T08:26:51.385Z,9.30
2023-04-12T08:27:54.916Z,9.60
2023-04-12T08:28:57.886Z,10.20
2023-04-12T08:30:00.285Z,8.40
2023-04-12T08:31:06.516Z,8.30
2023-04-12T08:32:10.757Z,9.00
2023-04-12T08:33:13.192Z,9.20
2023-04-12T08:34:18.086Z,8.90
2023-04-12T08:35:21.083Z,8.90
2023-04-12T08:36:23.535Z,8.60
2023-04-12T08:37:26.571Z,8.50
2023-04-12T08:38:44.090Z,8.90
2023-04-12T08:39:33.301Z,8.40
2023-04-12T08:40:35.551Z,8.00
2023-04-12T08:41:40.209Z,8.80
2023-04-12T08:42:42.810Z,9.70
2023-04-12T08:43:46.738Z,10.00
2023-04-12T08:44:51.223Z,10.20
2023-04-12T08:45:55.111Z,9.70
2023-04-12T08:46:58.772Z,9.50
2023-04-12T08:48:03.357Z,11.40
2023-04-12T08:49:05.940Z,9.60
2023-04-12T08:50:12.619Z,9.80
2023-04-12T08:51:20.800Z,10.50
2023-04-12T08:52:25.968Z,9.00
2023-04-12T08:53:28.816Z,8.00
2023-04-12T08:54:32.457Z,9.90
2023-04-12T08:55:35.497Z,9.30
2023-04-12T08:56:40.284Z,7.30
2023-04-12T08:57:43.953Z,10.60
2023-04-12T08:58:50.327Z,6.00
2023-04-12T08:59:55.770Z,8.50
2023-04-12T09:00:59.832Z,8.00
2023-04-12T09:02:02.363Z,9.40
2023-04-12T09:03:05.012Z,7.90
2023-04-12T09:04:07.896Z,7.40
2023-04-12T09:05:15.124Z,6.40
2023-04-12T09:06:21.268Z,8.10
2023-04-12T09:07:26.802Z,6.30
2023-04-12T09:08:29.341Z,8.00
2023-04-12T09:09:45.113Z,8.91
2023-04-12T09:10:49.297Z,9.10
2023-04-12T09:11:52.436Z,7.70
2023-04-12T09:12:55.632Z,8.20
2023-04-12T09:13:58.877Z,8.10
2023-04-12T09:15:12.728Z,8.40
2023-04-12T09:16:16.566Z,7.70
2023-04-12T09:17:27.296Z,8.60
2023-04-12T09:18:29.800Z,8.10
2023-04-12T09:19:37.799Z,8.60
2023-04-12T09:20:41.233Z,8.30
2023-04-12T09:21:55.485Z,8.70
2023-04-12T09:23:02.101Z,7.40
2023-04-12T09:24:10.349Z,8.40
2023-04-12T09:25:15.186Z,7.50
2023-04-12T09:26:30.077Z,6.60
2023-04-12T09:27:49.203Z,5.50
2023-04-12T09:28:51.672Z,7.30
2023-04-12T09:30:01.648Z,7.10
2023-04-12T09:31:05.287Z,7.30
2023-04-12T09:32:09.042Z,7.40
2023-04-12T09:33:15.440Z,8.20
2023-04-12T09:34:18.013Z,8.00
2023-04-12T09:35:36.905Z,7.60
2023-04-12T09:36:40.471Z,7.40
2023-04-12T09:37:44.329Z,7.90
2023-04-12T09:39:01.017Z,8.00
2023-04-12T09:40:05.989Z,8.90
2023-04-12T09:41:26.176Z,9.70
2023-04-12T09:42:33.842Z,8.00
2023-04-12T09:43:37.828Z,9.00
2023-04-12T09:44:40.349Z,8.00
2023-04-12T09:45:42.592Z,8.80
2023-04-12T09:46:48.816Z,7.70
2023-04-12T09:47:51.943Z,4.20
2023-04-12T09:48:58.286Z,9.20
2023-04-12T09:50:04.174Z,8.40
2023-04-12T09:51:07.700Z,7.80
2023-04-12T09:52:12.625Z,7.20
2023-04-12T09:53:20.975Z,8.40
2023-04-12T09:54:24.281Z,8.70
2023-04-12T09:55:28.975Z,7.90
2023-04-12T09:56:35.223Z,8.20
2023-04-12T09:57:40.698Z,8.10
2023-04-12T09:58:46.170Z,6.80
2023-04-12T09:59:52.106Z,7.50
2023-04-12T10:00:58.265Z,6.60
2023-04-12T10:02:01.257Z,7.70
2023-04-12T10:03:05.027Z,8.10
2023-04-12T10:04:09.157Z,8.10
2023-04-12T10:05:14.109Z,7.90
2023-04-12T10:06:17.991Z,8.40
2023-04-12T10:07:20.685Z,8.10
2023-04-12T10:08:23.620Z,6.20
2023-04-12T10:09:26.172Z,7.20
2023-04-12T10:10:31.537Z,8.55
2023-04-12T10:11:34.084Z,7.20
2023-04-12T10:12:36.830Z,6.80
2023-04-12T10:13:40.371Z,6.70
2023-04-12T10:14:43.913Z,7.00
2023-04-12T10:15:50.397Z,7.00
2023-04-12T10:16:58.776Z,6.80
2023-04-12T10:18:02.555Z,7.10
2023-04-12T10:19:06.400Z,7.40
2023-04-12T10:20:11.111Z,7.30
2023-04-12T10:21:14.974Z,8.70
2023-04-12T10:22:19.222Z,6.00
2023-04-12T10:23:21.831Z,7.70
2023-04-12T10:24:26.160Z,6.50
2023-04-12T10:25:31.392Z,8.00
2023-04-12T10:26:34.614Z,7.10
2023-04-12T10:27:38.009Z,7.90
2023-04-12T10:28:40.550Z,6.00
2023-04-12T10:29:44.000Z,8.00
2023-04-12T10:30:49.803Z,8.00
2023-04-12T10:31:55.531Z,6.90
2023-04-12T10:33:07.800Z,8.10
2023-04-12T10:34:11.722Z,7.50
2023-04-12T10:35:15.010Z,6.60
2023-04-12T10:36:17.597Z,8.20
2023-04-12T10:37:20.820Z,7.40
2023-04-12T10:38:29.224Z,8.10
2023-04-12T10:39:44.158Z,7.00
2023-04-12T10:41:15.895Z,7.00
2023-04-12T10:42:29.389Z,14.70
2023-04-12T10:43:33.763Z,8.40
2023-04-12T10:44:37.288Z,9.60
2023-04-12T10:45:41.420Z,8.00
2023-04-12T10:46:48.569Z,8.10
2023-04-12T10:48:01.229Z,7.60
2023-04-12T10:49:12.546Z,6.90
2023-04-12T10:50:25.746Z,6.40
2023-04-12T10:51:30.629Z,8.20
2023-04-12T10:52:38.146Z,6.90
2023-04-12T10:53:41.011Z,7.40
2023-04-12T10:54:45.440Z,6.70
2023-04-12T10:55:50.352Z,7.60
2023-04-12T10:56:57.010Z,8.20
2023-04-12T10:58:08.537Z,7.10
2023-04-12T10:59:12.711Z,4.40
2023-04-12T11:00:19.984Z,7.60
2023-04-12T11:01:22.640Z,7.27
2023-04-12T11:02:27.745Z,7.55
2023-04-12T11:03:32.219Z,7.80
2023-04-12T11:04:35.836Z,7.80
2023-04-12T11:06:23.845Z,8.10
2023-04-12T11:07:44.079Z,7.60
2023-04-12T11:09:02.877Z,8.30
2023-04-12T11:10:16.198Z,7.60
2023-04-12T11:11:22.686Z,6.80
2023-04-12T11:12:30.313Z,7.30
2023-04-12T11:13:36.986Z,7.90
2023-04-12T11:14:46.183Z,7.80
2023-04-12T11:15:52.117Z,6.20
2023-04-12T11:17:11.270Z,7.80
2023-04-12T11:18:15.253Z,7.90
2023-04-12T11:19:18.788Z,9.10
2023-04-12T11:20:22.560Z,9.10
2023-04-12T11:21:25.387Z,7.50
2023-04-12T11:22:30.028Z,6.91
2023-04-12T11:23:33.781Z,9.00
2023-04-12T11:24:40.132Z,7.30
2023-04-12T11:25:44.289Z,7.70
2023-04-12T11:26:47.224Z,8.30
2023-04-12T11:27:51.747Z,8.10
2023-04-12T11:28:55.558Z,9.80
2023-04-12T11:30:00.014Z,6.90
2023-04-12T11:31:03.972Z,8.90
2023-04-12T11:32:08.413Z,9.00
2023-04-12T11:33:11.501Z,8.60
2023-04-12T11:34:16.739Z,7.20
2023-04-12T11:35:21.071Z,9.00
2023-04-12T11:36:23.548Z,7.90
2023-04-12T11:37:26.550Z,6.70
2023-04-12T11:38:28.994Z,8.27
2023-04-12T11:39:44.112Z,7.40
2023-04-12T11:40:48.265Z,7.10
2023-04-12T11:41:53.835Z,8.70
2023-04-12T11:42:57.266Z,7.80
2023-04-12T11:43:59.943Z,9.10
2023-04-12T11:45:09.265Z,14.00
2023-04-12T11:46:08.686Z,9.10
2023-04-12T11:47:16.396Z,7.50
2023-04-12T11:48:19.103Z,8.20
2023-04-12T11:49:23.176Z,9.10
2023-04-12T11:50:31.218Z,8.40
2023-04-12T11:51:35.294Z,6.60
2023-04-12T11:52:37.736Z,7.70
2023-04-12T11:53:40.125Z,7.30
2023-04-12T11:54:48.987Z,6.90
2023-04-12T11:55:55.625Z,8.00
2023-04-12T11:56:58.298Z,7.10
2023-04-12T11:58:01.265Z,7.70
2023-04-12T11:59:04.257Z,7.70
2023-04-12T12:00:08.508Z,6.80
2023-04-12T12:01:21.221Z,8.70
2023-04-12T12:02:27.904Z,7.50
2023-04-12T12:03:30.475Z,9.00
2023-04-12T12:04:34.903Z,7.40
2023-04-12T12:05:39.886Z,8.10
2023-04-12T12:06:44.279Z,8.10
2023-04-12T12:07:47.801Z,8.00
2023-04-12T12:08:52.052Z,7.20
2023-04-12T12:09:55.330Z,7.00
2023-04-12T12:11:07.182Z,8.60
2023-04-12T12:12:02.531Z,8.30
2023-04-12T12:13:11.589Z,6.30
2023-04-12T12:14:19.982Z,7.80
2023-04-12T12:15:22.407Z,8.40
2023-04-12T12:16:29.793Z,7.20
2023-04-12T12:17:39.741Z,5.90
2023-04-12T12:18:49.637Z,8.10
2023-04-12T12:19:57.044Z,7.20
2023-04-12T12:21:00.689Z,7.30
2023-04-12T12:22:17.839Z,7.80
2023-04-12T12:23:36.435Z,6.90
2023-04-12T12:24:48.941Z,7.60
2023-04-12T12:25:51.634Z,6.40
2023-04-12T12:26:56.405Z,5.60
2023-04-12T12:28:00.526Z,7.50
2023-04-12T12:29:04.338Z,7.70
2023-04-12T12:30:11.641Z,7.40
2023-04-12T12:31:17.771Z,6.00
2023-04-12T12:32:23.917Z,7.70
2023-04-12T12:33:45.154Z,8.80
2023-04-12T12:34:37.633Z,6.70
2023-04-12T12:35:39.984Z,5.90
2023-04-12T12:36:42.550Z,7.60
2023-04-12T12:37:56.158Z,7.00
2023-04-12T12:39:12.378Z,8.50
2023-04-12T12:40:16.855Z,8.00
2023-04-12T12:41:22.926Z,9.80
2023-04-12T12:42:26.854Z,9.30
2023-04-12T12:43:29.282Z,6.70
2023-04-12T12:44:33.510Z,7.30
2023-04-12T12:45:38.976Z,7.90
2023-04-12T12:46:53.590Z,8.30
2023-04-12T12:47:51.698Z,6.90
2023-04-12T12:48:55.383Z,7.30
2023-04-12T12:49:58.458Z,7.40
2023-04-12T12:51:01.588Z,8.10
2023-04-12T12:52:07.329Z,8.30
2023-04-12T12:53:10.293Z,7.50
2023-04-12T12:54:12.801Z,7.36
2023-04-12T12:55:17.031Z,7.64
2023-04-12T12:56:19.755Z,7.30
2023-04-12T12:57:22.730Z,10.80
2023-04-12T12:58:25.576Z,10.80
2023-04-12T12:59:27.957Z,9.09
2023-04-12T13:00:31.826Z,13.80
2023-04-12T13:01:36.399Z,12.80
2023-04-12T13:02:45.133Z,7.80
2023-04-12T13:03:48.352Z,8.30
2023-04-12T13:04:51.067Z,8.30
2023-04-12T13:05:55.771Z,10.64
2023-04-12T13:06:59.724Z,7.80
2023-04-12T13:08:02.396Z,9.10
2023-04-12T13:09:05.087Z,9.00
2023-04-12T13:10:08.562Z,7.60
2023-04-12T13:11:10.932Z,6.80
2023-04-12T13:12:16.503Z,8.10
2023-04-12T13:13:19.641Z,7.90
2023-04-12T13:14:21.956Z,8.50
2023-04-12T13:15:25.058Z,6.20
2023-04-12T13:16:28.459Z,7.80
2023-04-12T13:17:31.304Z,9.30
2023-04-12T13:18:36.923Z,8.60
2023-04-12T13:19:40.346Z,7.60
2023-04-12T13:20:43.509Z,7.00
2023-04-12T13:21:46.846Z,6.90
2023-04-12T13:22:51.598Z,7.90
2023-04-12T13:23:54.125Z,7.90
2023-04-12T13:24:56.608Z,8.30
2023-04-12T13:25:59.146Z,7.20
2023-04-12T13:27:02.857Z,7.70
2023-04-12T13:28:05.941Z,5.40
2023-04-12T13:29:08.957Z,8.50
2023-04-12T13:30:11.977Z,8.40
2023-04-12T13:31:14.500Z,7.36
2023-04-12T13:32:18.103Z,7.60
2023-04-12T13:33:22.223Z,8.20
2023-04-12T13:34:26.755Z,6.20
2023-04-12T13:35:29.376Z,7.20
2023-04-12T13:36:32.668Z,8.45
2023-04-12T13:37:36.146Z,8.20
2023-04-12T13:38:38.448Z,7.30
2023-04-12T13:39:41.550Z,5.20
2023-04-12T13:40:44.914Z,7.00
2023-04-12T13:41:47.898Z,5.80
2023-04-12T13:42:50.773Z,10.70
2023-04-12T13:43:53.338Z,8.27
2023-04-12T13:44:57.680Z,9.20
2023-04-12T13:46:01.127Z,9.50
2023-04-12T13:47:04.053Z,6.60
2023-04-12T13:48:06.400Z,6.64
2023-04-12T13:49:08.751Z,5.80
2023-04-12T13:50:11.518Z,7.90
2023-04-12T13:51:13.853Z,5.30
2023-04-12T13:52:16.663Z,6.80
2023-04-12T13:53:19.024Z,6.80
2023-04-12T13:54:21.253Z,4.20
2023-04-12T13:55:24.225Z,6.30
2023-04-12T13:56:30.138Z,4.20
2023-04-12T13:57:32.477Z,6.30
2023-04-12T13:58:34.946Z,7.90
2023-04-12T13:59:37.949Z,6.90
2023-04-12T14:00:42.984Z,7.80
2023-04-12T14:01:46.065Z,7.00
2023-04-12T14:02:49.965Z,5.60
2023-04-12T14:03:55.550Z,6.80
2023-04-12T14:04:59.316Z,8.30
2023-04-12T14:06:02.296Z,6.60
2023-04-12T14:07:05.062Z,7.09
2023-04-12T14:08:07.556Z,9.27
2023-04-12T14:09:10.435Z,6.90
2023-04-12T14:10:13.140Z,13.70
2023-04-12T14:11:16.090Z,9.70